Come By Chance, Canada
Current Conditions -  °F | °C
As of 10:00 PM on Friday 19 Dec 2014 (Local Time) from CYYT Reporting Station
Broken Clouds Broken Clouds  
Wind Chill: 25°   Ceiling: 1900
Heat Index: 36°   Visibility: 15mi
Dew Point: 32°   Wind: 17mph
Humidity: 87%   Direction: 240°WSW
Pressure: 29.66"   Gusts: 24mph
Location:  47.85°N, 53.98°W
Report Text: CYYT 200100Z 24015G21KT 15SM BKN019 02/M00 A2966 RMK SC6 SLP050
Loading
Personal Weather Stations






























Interactive Weather Map New forecast layout! Learn more

10-Day Weather Forecast

Advertisements
Track Severe Weather on mobile